createdAt,value
2023-04-02T00:03:08.713Z,99436.20
2023-04-02T00:08:23.455Z,99439.83
2023-04-02T00:13:31.239Z,99442.60
2023-04-02T00:18:39.545Z,99446.46
2023-04-02T00:23:44.184Z,99452.52
2023-04-02T00:28:46.822Z,99460.02
2023-04-02T00:33:50.313Z,99465.73
2023-04-02T00:38:55.203Z,99470.11
2023-04-02T00:43:59.672Z,99472.75
2023-04-02T00:49:15.118Z,99481.30
2023-04-02T00:54:21.666Z,99475.98
2023-04-02T00:59:29.630Z,99486.98
2023-04-02T01:04:36.505Z,99487.92
2023-04-02T01:10:11.606Z,99496.89
2023-04-02T01:15:21.752Z,99497.33
2023-04-02T01:20:46.276Z,99505.28
2023-04-02T01:26:14.411Z,99508.30
2023-04-02T01:31:17.533Z,99512.17
2023-04-02T01:36:23.043Z,99516.77
2023-04-02T01:41:47.857Z,99519.08
2023-04-02T01:46:50.806Z,99523.48
2023-04-02T01:51:57.115Z,99526.80
2023-04-02T01:56:59.823Z,99536.03
2023-04-02T02:02:09.168Z,99546.48
2023-04-02T02:07:15.763Z,99546.82
2023-04-02T02:12:18.299Z,99549.48
2023-04-02T02:17:30.397Z,99557.02
2023-04-02T02:22:38.758Z,99560.45
2023-04-02T02:27:47.556Z,99564.09
2023-04-02T02:32:57.093Z,99568.83
2023-04-02T02:38:23.298Z,99575.75
2023-04-02T02:43:27.013Z,99573.61
2023-04-02T02:48:37.234Z,99583.66
2023-04-02T02:53:50.677Z,99589.23
2023-04-02T02:58:54.499Z,99593.89
2023-04-02T03:03:57.706Z,99592.27
2023-04-02T03:09:03.372Z,99603.11
2023-04-02T03:14:29.343Z,99612.97
2023-04-02T03:19:43.647Z,99620.66
2023-04-02T03:24:57.916Z,99627.43
2023-04-02T03:30:03.863Z,99637.48
2023-04-02T03:35:13.649Z,99645.44
2023-04-02T03:40:26.535Z,99651.55
2023-04-02T03:45:36.392Z,99656.99
2023-04-02T03:51:05.300Z,99666.70
2023-04-02T03:56:24.994Z,99678.94
2023-04-02T04:01:35.260Z,99686.58
2023-04-02T04:06:42.720Z,99689.42
2023-04-02T04:11:52.806Z,99698.05
2023-04-02T04:17:24.824Z,99706.13
2023-04-02T04:22:33.572Z,99710.77
2023-04-02T04:27:43.437Z,99715.91
2023-04-02T04:32:58.819Z,99721.09
2023-04-02T04:38:07.593Z,99728.09
2023-04-02T04:43:19.194Z,99737.13
2023-04-02T04:48:27.422Z,99748.20
2023-04-02T04:53:31.070Z,99752.70
2023-04-02T04:58:42.229Z,99760.61
2023-04-02T05:04:00.833Z,99766.02
2023-04-02T05:09:16.146Z,99775.01
2023-04-02T05:14:26.571Z,99781.30
2023-04-02T05:19:57.708Z,99790.95
2023-04-02T05:25:17.633Z,99797.40
2023-04-02T05:30:24.404Z,99800.30
2023-04-02T05:35:34.826Z,99803.09
2023-04-02T05:40:46.259Z,99805.80
2023-04-02T05:45:57.348Z,99809.42
2023-04-02T05:51:01.145Z,99818.56
2023-04-02T05:56:15.246Z,99827.20
2023-04-02T06:01:49.492Z,99829.38
2023-04-02T06:07:14.217Z,99835.88
2023-04-02T06:12:28.551Z,99843.39
2023-04-02T06:17:43.848Z,99849.79
2023-04-02T06:22:56.730Z,99861.29
2023-04-02T06:28:04.302Z,99867.79
2023-04-02T06:33:08.800Z,99876.69
2023-04-02T06:38:20.789Z,99878.10
2023-04-02T06:43:38.732Z,99885.89
2023-04-02T06:48:45.852Z,99895.66
2023-04-02T06:53:50.514Z,99898.66
2023-04-02T06:58:53.826Z,99904.33
2023-04-02T07:03:57.212Z,99905.92
2023-04-02T07:08:59.765Z,99914.15
2023-04-02T07:14:02.532Z,99923.89
2023-04-02T07:19:06.226Z,99936.98
2023-04-02T07:24:08.829Z,99945.38
2023-04-02T07:29:15.168Z,99953.43
2023-04-02T07:34:18.896Z,99954.67
2023-04-02T07:39:21.595Z,99964.54
2023-04-02T07:44:24.327Z,99969.30
2023-04-02T07:49:27.059Z,99977.01
2023-04-02T07:54:30.321Z,99979.60
2023-04-02T07:59:33.121Z,99985.60
2023-04-02T08:04:36.002Z,99991.21
2023-04-02T08:09:38.708Z,99998.36
2023-04-02T08:14:41.374Z,100005.77
2023-04-02T08:19:51.988Z,100012.48
2023-04-02T08:24:57.299Z,100024.30
2023-04-02T08:29:59.837Z,100031.40
2023-04-02T08:35:02.706Z,100040.05
2023-04-02T08:40:07.396Z,100044.02
2023-04-02T08:45:41.942Z,100047.23
2023-04-02T08:50:45.241Z,100055.01
2023-04-02T08:56:05.500Z,100061.20
2023-04-02T09:01:21.405Z,100066.14
2023-04-02T09:06:25.131Z,100076.61
2023-04-02T09:11:39.768Z,100087.33
2023-04-02T09:16:47.949Z,100094.14
2023-04-02T09:21:57.017Z,100100.67
2023-04-02T09:26:59.914Z,100109.88
2023-04-02T09:32:18.366Z,100121.63
2023-04-02T09:37:25.407Z,100133.41
2023-04-02T09:42:38.004Z,100141.84
2023-04-02T09:47:42.491Z,100145.68
2023-04-02T09:52:45.221Z,100152.96
2023-04-02T09:57:50.016Z,100165.52
2023-04-02T10:03:22.547Z,100165.95
2023-04-02T10:08:29.750Z,100175.26
2023-04-02T10:13:51.538Z,100178.41
2023-04-02T10:19:00.787Z,100185.82
2023-04-02T10:24:17.898Z,100190.34
2023-04-02T10:29:50.229Z,100192.60
2023-04-02T10:35:12.134Z,100204.32
2023-04-02T10:41:03.657Z,100207.27
2023-04-02T10:46:25.710Z,100207.52
2023-04-02T10:51:29.835Z,100213.99
2023-04-02T10:56:47.843Z,100220.17
2023-04-02T11:01:59.306Z,100225.89
2023-04-02T11:07:14.337Z,100228.67
2023-04-02T11:12:25.767Z,100245.69
2023-04-02T11:17:28.742Z,100252.55
2023-04-02T11:22:31.965Z,100257.08
2023-04-02T11:27:44.891Z,100266.00
2023-04-02T11:32:49.921Z,100271.17
2023-04-02T11:37:54.972Z,100275.73
2023-04-02T11:43:37.114Z,100285.83
2023-04-02T11:48:40.849Z,100290.87
2023-04-02T11:53:45.094Z,100298.34
2023-04-02T11:59:04.261Z,100298.84
2023-04-02T12:04:32.229Z,100302.55
2023-04-02T12:09:43.456Z,100313.59
2023-04-02T12:14:48.598Z,100318.33
2023-04-02T12:19:55.272Z,100326.41
2023-04-02T12:25:05.043Z,100330.31
2023-04-02T12:30:14.675Z,100337.27
2023-04-02T12:35:34.675Z,100340.45
2023-04-02T12:40:37.746Z,100341.86
2023-04-02T12:45:40.975Z,100346.95
2023-04-02T12:50:45.220Z,100354.92
2023-04-02T12:55:51.293Z,100356.42
2023-04-02T13:01:15.683Z,100368.36
2023-04-02T13:06:23.399Z,100374.48
2023-04-02T13:11:44.324Z,100387.42
2023-04-02T13:16:48.582Z,100393.80
2023-04-02T13:21:53.528Z,100399.04
2023-04-02T13:27:02.076Z,100406.64
2023-04-02T13:32:07.836Z,100412.64
2023-04-02T13:37:13.017Z,100420.91
2023-04-02T13:42:17.886Z,100423.70
2023-04-02T13:47:20.717Z,100427.73
2023-04-02T13:52:23.277Z,100432.27
2023-04-02T13:57:25.976Z,100433.34
2023-04-02T14:02:29.221Z,100429.52
2023-04-02T14:07:54.025Z,100429.41
2023-04-02T14:13:18.583Z,100440.50
2023-04-02T14:18:43.023Z,100440.83
2023-04-02T14:23:58.185Z,100453.07
2023-04-02T14:29:23.711Z,100460.49
2023-04-02T14:34:58.632Z,100462.20
2023-04-02T14:40:07.632Z,100466.90
2023-04-02T14:45:35.040Z,100473.45
2023-04-02T14:50:40.494Z,100477.31
2023-04-02T14:55:46.805Z,100481.52
2023-04-02T15:01:03.253Z,100484.19
2023-04-02T15:06:16.783Z,100486.58
2023-04-02T15:11:37.450Z,100491.63
2023-04-02T15:16:40.470Z,100502.84
2023-04-02T15:21:55.959Z,100502.76
2023-04-02T15:27:25.259Z,100510.62
2023-04-02T15:32:34.485Z,100520.25
2023-04-02T15:38:09.207Z,100524.42
2023-04-02T15:43:26.737Z,100532.06
2023-04-02T15:49:01.174Z,100543.60
2023-04-02T15:54:03.879Z,100551.48
2023-04-02T15:59:32.247Z,100558.48
2023-04-02T16:05:09.092Z,100565.67
2023-04-02T16:10:40.946Z,100568.27
2023-04-02T16:16:11.209Z,100582.20
2023-04-02T16:21:20.726Z,100583.77
2023-04-02T16:26:26.790Z,100591.65
2023-04-02T16:31:45.817Z,100604.83
2023-04-02T16:37:15.675Z,100613.58
2023-04-02T16:42:24.433Z,100623.20
2023-04-02T16:47:46.043Z,100625.05
2023-04-02T16:52:56.154Z,100636.78
2023-04-02T16:58:28.408Z,100645.85
2023-04-02T17:04:03.187Z,100651.00
2023-04-02T17:09:22.018Z,100664.96
2023-04-02T17:14:30.574Z,100674.52
2023-04-02T17:19:33.260Z,100686.36
2023-04-02T17:24:42.327Z,100690.56
2023-04-02T17:29:50.564Z,100702.96
2023-04-02T17:34:56.558Z,100711.98
2023-04-02T17:40:17.976Z,100718.80
2023-04-02T17:45:34.209Z,100732.05
2023-04-02T17:50:42.294Z,100745.35
2023-04-02T17:56:06.783Z,100759.05
2023-04-02T18:01:09.433Z,100764.70
2023-04-02T18:06:31.288Z,100769.18
2023-04-02T18:11:55.684Z,100781.38
2023-04-02T18:17:31.967Z,100786.41
2023-04-02T18:22:39.451Z,100797.54
2023-04-02T18:28:02.526Z,100811.98
2023-04-02T18:33:19.892Z,100816.84
2023-04-02T18:38:34.278Z,100818.23
2023-04-02T18:43:57.509Z,100828.54
2023-04-02T18:49:18.229Z,100831.42
2023-04-02T18:54:30.478Z,100839.14
2023-04-02T18:59:41.718Z,100846.04
2023-04-02T19:05:09.076Z,100856.85
2023-04-02T19:10:27.301Z,100861.31
2023-04-02T19:15:53.575Z,100864.30
2023-04-02T19:21:02.144Z,100872.29
2023-04-02T19:26:13.786Z,100878.45
2023-04-02T19:31:33.877Z,100884.61
2023-04-02T19:37:09.698Z,100890.06
2023-04-02T19:42:32.155Z,100900.08
2023-04-02T19:47:34.783Z,100908.70
2023-04-02T19:52:37.985Z,100914.02
2023-04-02T19:57:43.264Z,100917.20
2023-04-02T20:02:45.982Z,100921.07
2023-04-02T20:07:48.531Z,100927.73
2023-04-02T20:12:51.237Z,100933.27
2023-04-02T20:17:53.796Z,100935.21
2023-04-02T20:22:56.397Z,100944.17
2023-04-02T20:28:00.830Z,100951.30
2023-04-02T20:33:03.586Z,100957.40
2023-04-02T20:38:08.254Z,100961.59
2023-04-02T20:43:11.262Z,100971.03
2023-04-02T20:48:13.819Z,100976.88
2023-04-02T20:53:17.402Z,100983.82
2023-04-02T20:58:20.073Z,100982.31
2023-04-02T21:03:23.102Z,100988.48
2023-04-02T21:08:26.428Z,100992.95
2023-04-02T21:13:31.021Z,101002.77
2023-04-02T21:18:34.097Z,101009.98
2023-04-02T21:23:36.673Z,101014.55
2023-04-02T21:28:39.278Z,101020.02
2023-04-02T21:33:47.961Z,101027.52
2023-04-02T21:38:53.301Z,101025.80
2023-04-02T21:43:58.514Z,101029.39
2023-04-02T21:49:02.840Z,101038.31
2023-04-02T21:54:06.044Z,101038.43
2023-04-02T21:59:11.055Z,101038.11
2023-04-02T22:04:20.259Z,101038.88
2023-04-02T22:09:25.091Z,101041.89
2023-04-02T22:14:28.388Z,101048.39
2023-04-02T22:19:32.842Z,101055.01
2023-04-02T22:24:35.384Z,101057.90
2023-04-02T22:29:38.029Z,101059.02
2023-04-02T22:34:45.485Z,101055.42
2023-04-02T22:39:48.384Z,101059.71
2023-04-02T22:44:51.002Z,101068.35
2023-04-02T22:49:53.571Z,101068.74
2023-04-02T22:54:56.380Z,101071.95
2023-04-02T22:59:58.909Z,101074.51
2023-04-02T23:05:01.584Z,101079.24
2023-04-02T23:10:05.864Z,101085.63
2023-04-02T23:15:09.916Z,101084.38
2023-04-02T23:20:12.649Z,101087.48
2023-04-02T23:25:15.272Z,101085.98
2023-04-02T23:30:18.095Z,101085.13
2023-04-02T23:35:20.906Z,101083.02
2023-04-02T23:40:23.572Z,101085.11
2023-04-02T23:45:26.439Z,101086.30
2023-04-02T23:50:29.390Z,101089.30
2023-04-02T23:55:31.937Z,101090.37
